الصفحة الرئيسية
METAR-TAF:

METAR-TAF

مطار :

Glendale Municipal Airport

غلانديل, أريزونا, الولايات المتحدة

دائرة عرض: 33-31-38N, خط طول: 112-17-43W, ارتفاع: 325 متر

مراقبة الطقس الحالي

تاريخ ووقت الإصدار 7ساعات و 31 دقيقة قبل الساعة 02:55UTC
ريح 3 عقدة من الجنوب الغربي
درجة الحرارة 33°درجة مئوية
الرطوبة 13%
ضغط 1012 hPa
الرؤية: 16.1 كم
غيوم قليلة على ارتفاع 22000 قدم

METAR: KGEU 290255Z 23003KT 10SM FEW220 33/01 A2988 RMK LAST

زمن: 03:26 (10:26 UTC)


TAF: مفقودة

أرصاد الطقس والتوقعات من أكثر من 4000 مطار (تقارير الطقس للمطار METAR والتنبؤ بالطقس بالمطارTAF).

المحطات المتاحة هي النقط الصفراء والحمراء على الخريطة.

حرك المؤشر فوق النقطة لمعرفة اسم المحطة.

ثم انقر لمعرفة أرصاد وتوقعات الطقس.

لتغيير الخارطة: اضغط على الأزرار الخضراء مع رمز الصليب الأسود للتكبير. على الزر الأخضر مع شرطة للتصغير، أو على الأسهم الخضراء للخرائط المجاورة.


METAR-TAF: